Time;durP1;ratioP1;P1;durP2;ratioP2;P2;SDS_P1;SDS_P2;PMS_P1;PMS_P2;Temp;Humidity;BMP_temperature;BMP_pressure;BME280_temperature;BME280_humidity;BME280_pressure;Samples;Min_cycle;Max_cycle;Signal;HPM_P1;HPM_P2
2022/09/22 00:01:08;;;;;;;3.63;2.90;;;10.30;99.90;;;;;;5026882;28;20190;-67
2022/09/22 00:03:39;;;;;;;4.17;3.77;;;10.30;99.90;;;;;;5025665;28;20193;-67
2022/09/22 00:06:08;;;;;;;3.87;3.53;;;10.30;99.90;;;;;;5026303;28;20184;-67
2022/09/22 00:08:37;;;;;;;3.73;3.50;;;10.20;99.90;;;;;;5026192;28;20181;-67
2022/09/22 00:11:12;;;;;;;3.43;3.13;;;10.20;99.90;;;;;;5026133;28;20294;-68
2022/09/22 00:13:38;;;;;;;3.07;2.87;;;10.10;99.90;;;;;;5026559;28;20184;-68
2022/09/22 00:16:07;;;;;;;4.60;3.00;;;10.10;99.90;;;;;;5026116;28;20191;-68
2022/09/22 00:18:35;;;;;;;2.77;2.57;;;10.10;99.90;;;;;;5026105;28;20243;-68
2022/09/22 00:21:11;;;;;;;3.37;3.03;;;10.00;99.90;;;;;;5026311;28;20172;-67
2022/09/22 00:23:37;;;;;;;5.57;3.30;;;10.00;99.90;;;;;;5026141;28;20289;-67
2022/09/22 00:26:04;;;;;;;4.03;2.87;;;9.90;99.90;;;;;;5025968;28;20615;-67
2022/09/22 00:28:31;;;;;;;3.33;3.07;;;9.90;99.90;;;;;;5026343;28;20189;-68
2022/09/22 00:30:57;;;;;;;6.07;3.07;;;9.80;99.90;;;;;;5026298;28;20261;-68
2022/09/22 00:33:22;;;;;;;4.43;2.63;;;9.70;99.90;;;;;;5026351;28;20697;-68
2022/09/22 00:35:58;;;;;;;3.80;3.50;;;9.70;99.90;;;;;;5026138;28;20241;-68
2022/09/22 00:38:24;;;;;;;5.17;2.93;;;9.60;99.90;;;;;;5025725;28;20212;-68
2022/09/22 00:40:50;;;;;;;3.33;2.97;;;9.60;99.90;;;;;;5025980;28;20180;-67
2022/09/22 00:43:19;;;;;;;3.30;2.73;;;9.60;99.90;;;;;;5025820;28;20179;-68
2022/09/22 00:45:58;;;;;;;3.50;3.20;;;9.50;99.90;;;;;;5025893;28;20173;-68
2022/09/22 00:48:26;;;;;;;4.57;3.17;;;9.50;99.90;;;;;;5023773;28;20207;-68
2022/09/22 00:50:54;;;;;;;3.93;3.13;;;9.40;99.90;;;;;;5022494;28;20228;-67
2022/09/22 00:53:21;;;;;;;3.63;3.00;;;9.40;99.90;;;;;;5037238;28;20211;-68
2022/09/22 00:56:10;;;;;;;3.30;2.97;;;9.30;99.90;;;;;;5017166;28;20196;-67
2022/09/22 00:58:50;;;;;;;3.10;2.80;;;9.30;99.90;;;;;;5019365;28;20706;-68
2022/09/22 01:01:16;;;;;;;7.17;3.37;;;9.30;99.90;;;;;;5018539;28;20191;-67
2022/09/22 01:03:42;;;;;;;5.83;3.77;;;9.30;99.90;;;;;;5026002;28;20204;-67
2022/09/22 01:06:11;;;;;;;4.27;3.23;;;9.30;99.90;;;;;;5032531;28;20207;-68
2022/09/22 01:08:38;;;;;;;4.87;2.77;;;9.20;99.90;;;;;;5031369;28;20230;-68
2022/09/22 01:11:05;;;;;;;3.07;2.77;;;9.10;99.90;;;;;;5033115;28;20589;-68
2022/09/22 01:13:50;;;;;;;3.07;2.87;;;9.10;99.90;;;;;;5035874;28;20195;-66
2022/09/22 01:16:41;;;;;;;2.73;2.53;;;9.10;99.90;;;;;;5023713;28;20271;-67
2022/09/22 01:19:43;;;;;;;4.03;3.40;;;9.00;99.90;;;;;;5033800;28;20681;-66
2022/09/22 01:22:39;;;;;;;4.00;3.60;;;9.00;99.90;;;;;;5044070;28;20198;-66
2022/09/22 01:25:32;;;;;;;3.30;2.73;;;8.90;99.90;;;;;;5024261;28;20207;-67
2022/09/22 01:28:28;;;;;;;3.13;2.80;;;9.00;99.90;;;;;;5017843;28;20198;-66
2022/09/22 01:31:10;;;;;;;3.47;3.17;;;8.90;99.90;;;;;;5018873;28;20307;-67
2022/09/22 01:33:54;;;;;;;4.07;3.53;;;9.00;99.90;;;;;;5031662;28;20210;-67
2022/09/22 01:36:39;;;;;;;4.63;3.30;;;8.90;99.90;;;;;;5022772;28;20727;-67
2022/09/22 01:39:13;;;;;;;3.20;2.90;;;8.90;99.90;;;;;;5026625;28;20721;-67
2022/09/22 01:41:46;;;;;;;3.30;2.93;;;8.80;99.90;;;;;;5020910;28;20676;-67
2022/09/22 01:44:32;;;;;;;4.43;3.20;;;8.80;99.90;;;;;;5019396;28;20211;-68
2022/09/22 01:47:06;;;;;;;3.03;2.73;;;8.80;99.90;;;;;;5023477;28;20366;-67
2022/09/22 01:49:34;;;;;;;3.30;2.87;;;8.80;99.90;;;;;;5019206;28;20287;-67
2022/09/22 01:52:05;;;;;;;4.73;2.90;;;8.70;99.90;;;;;;5032868;28;20313;-67
2022/09/22 01:54:38;;;;;;;3.73;3.20;;;8.70;99.90;;;;;;5018479;28;20212;-67
2022/09/22 01:57:12;;;;;;;3.17;2.87;;;8.70;99.90;;;;;;5023923;28;20219;-67
2022/09/22 01:59:41;;;;;;;4.10;3.33;;;8.70;99.90;;;;;;5021409;28;20334;-67
2022/09/22 02:02:15;;;;;;;3.00;2.80;;;8.70;99.90;;;;;;5043856;28;20623;-67
2022/09/22 02:04:49;;;;;;;4.17;3.10;;;8.70;99.90;;;;;;5021434;28;20600;-67
2022/09/22 02:07:23;;;;;;;3.47;2.80;;;8.70;99.90;;;;;;5038546;28;20188;-66
2022/09/22 02:09:49;;;;;;;5.00;3.23;;;8.60;99.90;;;;;;5022248;28;20212;-67
2022/09/22 02:12:17;;;;;;;7.63;3.13;;;8.60;99.90;;;;;;5025389;28;20219;-67
2022/09/22 02:14:44;;;;;;;3.57;2.73;;;8.60;99.90;;;;;;5017022;28;20207;-66
2022/09/22 02:17:10;;;;;;;3.13;2.90;;;8.50;99.90;;;;;;5034442;28;20219;-66
2022/09/22 02:19:38;;;;;;;3.77;3.43;;;8.50;99.90;;;;;;5025094;28;20211;-65
2022/09/22 02:22:05;;;;;;;6.80;3.63;;;8.50;99.90;;;;;;5031199;28;20286;-66
2022/09/22 02:24:36;;;;;;;2.63;2.43;;;8.50;99.90;;;;;;5029603;28;20307;-66
2022/09/22 02:27:05;;;;;;;2.93;2.73;;;8.50;99.90;;;;;;5037194;28;20669;-67
2022/09/22 02:29:34;;;;;;;4.43;3.13;;;8.40;99.90;;;;;;5024056;28;20889;-66
2022/09/22 02:32:03;;;;;;;3.30;3.00;;;8.40;99.90;;;;;;5048592;28;20197;-67
2022/09/22 02:34:30;;;;;;;3.47;3.00;;;8.40;99.90;;;;;;5026363;28;20242;-67
2022/09/22 02:37:21;;;;;;;3.63;3.33;;;8.40;99.90;;;;;;5031918;28;20207;-66
2022/09/22 02:40:04;;;;;;;3.70;2.87;;;8.40;99.90;;;;;;5016883;28;20195;-67
2022/09/22 02:42:46;;;;;;;4.70;3.40;;;8.40;99.90;;;;;;5018894;28;20184;-66
2022/09/22 02:45:19;;;;;;;2.80;2.57;;;8.40;99.90;;;;;;5023710;28;20199;-67
2022/09/22 02:47:50;;;;;;;3.50;2.80;;;8.30;99.90;;;;;;5011011;28;20569;-66
2022/09/22 02:50:20;;;;;;;3.77;3.47;;;8.30;99.90;;;;;;5027371;28;20222;-66
2022/09/22 02:52:49;;;;;;;3.87;2.83;;;8.20;99.90;;;;;;5038518;28;20689;-66
2022/09/22 02:55:16;;;;;;;2.70;2.50;;;8.10;99.90;;;;;;5018176;28;20651;-67
2022/09/22 02:57:42;;;;;;;3.37;2.83;;;8.10;99.90;;;;;;5029611;28;20426;-67
2022/09/22 03:00:09;;;;;;;3.30;2.57;;;8.10;99.90;;;;;;5028418;28;20232;-67
2022/09/22 03:02:34;;;;;;;6.50;3.17;;;8.00;99.90;;;;;;5030590;28;20242;-67
2022/09/22 03:05:00;;;;;;;4.17;3.10;;;8.00;99.90;;;;;;5029228;28;20235;-67
2022/09/22 03:07:25;;;;;;;4.17;2.73;;;8.00;99.90;;;;;;5032225;28;20201;-66
2022/09/22 03:09:51;;;;;;;2.80;2.60;;;8.00;99.90;;;;;;5020988;28;20714;-66
2022/09/22 03:12:17;;;;;;;5.43;3.13;;;7.90;99.90;;;;;;5032579;28;20230;-67
2022/09/22 03:14:42;;;;;;;4.97;4.10;;;8.00;99.90;;;;;;5031901;28;20218;-67
2022/09/22 03:17:08;;;;;;;6.97;2.90;;;8.00;99.90;;;;;;5037734;28;20214;-66
2022/09/22 03:19:33;;;;;;;3.53;3.23;;;8.00;99.90;;;;;;5026724;28;20677;-67
2022/09/22 03:21:59;;;;;;;2.83;2.63;;;8.00;99.90;;;;;;5027446;28;20195;-66
2022/09/22 03:24:24;;;;;;;2.77;2.57;;;7.90;99.90;;;;;;5025313;28;20231;-66
2022/09/22 03:26:50;;;;;;;4.17;2.80;;;7.90;99.90;;;;;;5028145;28;20191;-66
2022/09/22 03:29:15;;;;;;;3.53;2.97;;;7.90;99.90;;;;;;5035378;28;20231;-67
2022/09/22 03:31:41;;;;;;;3.23;2.83;;;7.90;99.90;;;;;;5033413;28;20245;-67
2022/09/22 03:34:06;;;;;;;2.73;2.53;;;7.90;99.90;;;;;;5036043;28;20764;-67
2022/09/22 03:36:32;;;;;;;4.10;2.63;;;7.80;99.90;;;;;;5026591;28;20266;-67
2022/09/22 03:38:58;;;;;;;3.60;3.17;;;7.80;99.90;;;;;;5029471;28;20320;-67
2022/09/22 03:41:24;;;;;;;3.57;2.77;;;7.80;99.90;;;;;;5018050;28;20790;-67
2022/09/22 03:43:49;;;;;;;3.23;2.93;;;7.70;99.90;;;;;;5035572;28;20226;-67
2022/09/22 03:46:15;;;;;;;3.33;3.03;;;7.70;99.90;;;;;;5026759;28;20195;-67
2022/09/22 03:48:40;;;;;;;3.23;3.03;;;7.70;99.90;;;;;;5026971;28;20230;-66
2022/09/22 03:51:06;;;;;;;3.93;3.27;;;7.60;99.90;;;;;;5028440;28;20227;-66
2022/09/22 03:53:31;;;;;;;3.53;3.20;;;7.70;99.90;;;;;;5034454;28;20209;-66
2022/09/22 03:56:08;;;;;;;3.40;3.10;;;7.70;99.90;;;;;;5019886;28;20188;-66
2022/09/22 03:58:35;;;;;;;3.40;3.10;;;7.70;99.90;;;;;;5021088;28;20270;-66
2022/09/22 04:01:00;;;;;;;3.43;3.13;;;7.60;99.90;;;;;;5035219;28;20187;-66
2022/09/22 04:03:26;;;;;;;3.30;2.93;;;7.60;99.90;;;;;;5032851;28;20188;-66
2022/09/22 04:05:52;;;;;;;4.53;3.57;;;7.70;99.90;;;;;;5026383;28;20191;-66
2022/09/22 04:08:17;;;;;;;3.67;3.13;;;7.60;99.90;;;;;;5036003;28;20183;-66
2022/09/22 04:10:44;;;;;;;3.33;2.83;;;7.70;99.90;;;;;;5022758;28;20215;-66
2022/09/22 04:13:11;;;;;;;3.30;3.00;;;7.70;99.90;;;;;;5039714;28;20297;-67
2022/09/22 04:15:37;;;;;;;6.17;3.30;;;7.70;99.90;;;;;;5024812;28;20211;-66
2022/09/22 04:18:02;;;;;;;3.27;2.97;;;7.70;99.90;;;;;;5041880;28;20233;-66
2022/09/22 04:20:29;;;;;;;2.73;2.53;;;7.70;99.90;;;;;;5026097;28;20286;-66
2022/09/22 04:22:54;;;;;;;9.43;6.37;;;7.70;99.90;;;;;;5026417;28;20203;-66
2022/09/22 04:25:20;;;;;;;3.27;2.97;;;7.60;99.90;;;;;;5025739;28;20207;-66
2022/09/22 04:27:45;;;;;;;3.73;3.40;;;7.70;99.90;;;;;;5042707;28;20182;-67
2022/09/22 04:30:11;;;;;;;3.97;3.63;;;7.60;99.90;;;;;;5028188;28;20203;-66
2022/09/22 04:32:37;;;;;;;4.47;4.07;;;7.60;99.90;;;;;;5028733;28;20226;-65
2022/09/22 04:35:03;;;;;;;4.00;3.70;;;7.50;99.90;;;;;;5029863;28;20233;-64
2022/09/22 04:37:28;;;;;;;4.77;4.00;;;7.50;99.90;;;;;;5038335;28;20215;-64
2022/09/22 04:39:54;;;;;;;3.50;3.13;;;7.60;99.90;;;;;;5018399;28;20200;-65
2022/09/22 04:42:20;;;;;;;4.63;3.87;;;7.60;99.90;;;;;;5044284;28;20257;-65
2022/09/22 04:44:46;;;;;;;4.67;3.70;;;7.50;99.90;;;;;;5031986;28;20556;-67
2022/09/22 04:47:12;;;;;;;5.70;3.90;;;7.50;99.90;;;;;;5036463;28;20333;-67
2022/09/22 04:49:38;;;;;;;5.43;4.93;;;7.50;99.90;;;;;;5030544;28;20317;-67
2022/09/22 04:52:03;;;;;;;3.53;3.23;;;7.50;99.90;;;;;;5040916;28;20313;-67
2022/09/22 04:54:29;;;;;;;5.10;3.70;;;7.50;99.90;;;;;;5031305;28;20199;-67
2022/09/22 04:56:55;;;;;;;3.40;3.10;;;7.50;99.90;;;;;;5026237;28;20215;-67
2022/09/22 04:59:20;;;;;;;3.80;3.30;;;7.40;99.90;;;;;;5032791;28;20207;-67
2022/09/22 05:01:46;;;;;;;3.37;2.90;;;7.40;99.90;;;;;;5020289;28;20554;-67
2022/09/22 05:04:12;;;;;;;4.20;3.17;;;7.40;99.90;;;;;;5029299;28;20677;-67
2022/09/22 05:06:37;;;;;;;3.90;3.60;;;7.40;99.90;;;;;;5025737;28;20187;-67
2022/09/22 05:09:08;;;;;;;3.53;3.23;;;7.40;99.90;;;;;;5037569;28;20256;-65
2022/09/22 05:11:34;;;;;;;3.33;3.03;;;7.40;99.90;;;;;;5011526;28;20221;-65
2022/09/22 05:14:01;;;;;;;6.63;3.90;;;7.50;99.90;;;;;;5031003;28;20199;-64
2022/09/22 05:16:27;;;;;;;5.37;3.50;;;7.50;99.90;;;;;;5025214;28;20218;-66
2022/09/22 05:18:52;;;;;;;4.47;3.70;;;7.50;99.90;;;;;;5024035;28;20221;-66
2022/09/22 05:21:18;;;;;;;4.27;3.87;;;7.50;99.90;;;;;;5018598;28;20191;-66
2022/09/22 05:23:44;;;;;;;5.50;3.87;;;7.50;99.90;;;;;;5016367;28;20207;-67
2022/09/22 05:26:10;;;;;;;6.83;4.97;;;7.50;99.90;;;;;;5016249;28;20533;-69
2022/09/22 05:28:36;;;;;;;6.23;4.67;;;7.50;99.90;;;;;;5018456;28;20201;-65
2022/09/22 05:31:02;;;;;;;6.53;4.47;;;7.50;99.90;;;;;;5018865;28;20195;-65
2022/09/22 05:33:27;;;;;;;6.20;3.77;;;7.50;99.90;;;;;;5008794;28;20668;-66
2022/09/22 05:35:53;;;;;;;5.03;4.27;;;7.60;99.90;;;;;;5013019;28;20308;-67
2022/09/22 05:38:18;;;;;;;5.37;4.03;;;7.60;99.90;;;;;;5029471;28;20257;-66
2022/09/22 05:40:46;;;;;;;4.73;4.10;;;7.60;99.90;;;;;;5015265;28;20460;-68
2022/09/22 05:43:11;;;;;;;7.10;5.13;;;7.60;99.90;;;;;;5031634;28;20196;-68
2022/09/22 05:45:37;;;;;;;8.53;4.67;;;7.70;99.90;;;;;;5022308;28;20565;-68
2022/09/22 05:48:03;;;;;;;5.63;4.60;;;7.70;99.90;;;;;;5036092;28;20191;-68
2022/09/22 05:50:28;;;;;;;6.47;3.37;;;7.70;99.90;;;;;;5032144;28;20247;-65
2022/09/22 05:53:08;;;;;;;3.87;3.47;;;7.80;99.90;;;;;;5034408;28;20207;-65
2022/09/22 05:55:34;;;;;;;8.97;4.40;;;7.80;99.90;;;;;;5018608;28;20302;-66
2022/09/22 05:58:00;;;;;;;4.87;4.47;;;7.90;99.90;;;;;;5032898;28;20325;-67
2022/09/22 06:00:26;;;;;;;5.03;4.00;;;7.90;99.90;;;;;;5021785;28;20197;-64
2022/09/22 06:02:51;;;;;;;5.07;4.17;;;8.00;99.90;;;;;;5019164;28;20681;-65
2022/09/22 06:05:17;;;;;;;8.40;4.37;;;8.00;99.90;;;;;;5020983;28;20494;-65
2022/09/22 06:07:43;;;;;;;4.47;3.47;;;8.10;99.90;;;;;;5020993;28;20227;-66
2022/09/22 06:10:10;;;;;;;5.57;3.87;;;8.20;99.90;;;;;;5017488;28;20232;-67
2022/09/22 06:12:36;;;;;;;7.07;3.57;;;8.20;99.90;;;;;;5020978;28;20200;-66
2022/09/22 06:15:03;;;;;;;4.30;3.90;;;8.30;99.90;;;;;;5022591;28;20195;-65
2022/09/22 06:17:28;;;;;;;5.93;3.43;;;8.40;99.90;;;;;;5027942;28;20242;-68
2022/09/22 06:19:54;;;;;;;4.93;3.17;;;8.50;99.90;;;;;;5020535;28;20266;-67
2022/09/22 06:22:19;;;;;;;5.77;3.70;;;8.50;99.90;;;;;;5029363;28;20214;-67
2022/09/22 06:24:45;;;;;;;4.90;3.70;;;8.60;99.90;;;;;;5016213;28;20204;-67
2022/09/22 06:27:10;;;;;;;4.77;3.87;;;8.70;99.90;;;;;;5020684;28;20196;-67
2022/09/22 06:29:36;;;;;;;4.20;3.80;;;8.70;99.90;;;;;;5020815;28;20204;-66
2022/09/22 06:32:06;;;;;;;5.17;4.23;;;8.90;99.90;;;;;;5016654;28;20685;-66
2022/09/22 06:34:32;;;;;;;3.20;2.90;;;9.00;99.90;;;;;;5018792;28;20253;-67
2022/09/22 06:36:58;;;;;;;3.50;3.20;;;9.10;99.90;;;;;;5021880;28;20274;-65
2022/09/22 06:39:24;;;;;;;5.10;4.63;;;9.20;99.90;;;;;;5029737;28;20196;-65
2022/09/22 06:41:50;;;;;;;3.97;3.67;;;9.30;99.90;;;;;;5017935;28;20639;-68
2022/09/22 06:44:15;;;;;;;3.67;3.33;;;9.40;99.90;;;;;;5014122;28;20204;-68
2022/09/22 06:46:41;;;;;;;4.90;3.63;;;9.50;99.90;;;;;;5019261;28;20180;-67
2022/09/22 06:49:07;;;;;;;10.60;3.87;;;9.60;99.90;;;;;;5015631;28;20212;-66
2022/09/22 06:51:35;;;;;;;3.97;3.57;;;9.70;99.90;;;;;;5017912;28;20222;-66
2022/09/22 06:54:03;;;;;;;6.10;4.10;;;9.70;99.90;;;;;;5019988;28;20202;-66
2022/09/22 06:56:33;;;;;;;6.53;3.93;;;9.90;99.90;;;;;;5017854;28;20202;-66
2022/09/22 06:58:59;;;;;;;7.03;4.57;;;10.00;99.90;;;;;;5018675;28;20196;-65
2022/09/22 07:01:29;;;;;;;3.93;3.53;;;10.10;99.90;;;;;;5019881;28;20180;-68
2022/09/22 07:03:55;;;;;;;5.30;3.50;;;10.20;99.90;;;;;;5019986;28;20192;-66
2022/09/22 07:06:21;;;;;;;4.43;3.93;;;10.30;99.90;;;;;;5021963;28;20196;-67
2022/09/22 07:08:47;;;;;;;5.20;3.63;;;10.40;99.90;;;;;;5029413;28;20195;-65
2022/09/22 07:11:25;;;;;;;7.00;4.23;;;10.40;99.90;;;;;;5025313;28;20251;-65
2022/09/22 07:13:52;;;;;;;4.50;3.60;;;10.50;99.90;;;;;;5020255;28;20195;-68
2022/09/22 07:16:20;;;;;;;4.43;3.83;;;10.60;99.90;;;;;;5017000;28;20237;-67
2022/09/22 07:18:48;;;;;;;4.53;3.97;;;10.80;99.90;;;;;;5025907;28;20233;-67
2022/09/22 07:21:16;;;;;;;4.93;4.43;;;10.90;99.90;;;;;;5025951;28;20204;-67
2022/09/22 07:23:42;;;;;;;5.87;3.90;;;11.10;99.90;;;;;;5029387;28;20204;-71
2022/09/22 07:26:11;;;;;;;5.30;4.33;;;11.20;99.90;;;;;;5022465;28;20200;-80
2022/09/22 07:28:37;;;;;;;5.83;3.63;;;11.40;99.90;;;;;;5024392;28;20220;-69
2022/09/22 07:31:04;;;;;;;4.33;3.90;;;11.60;99.90;;;;;;5015698;28;20208;-68
2022/09/22 07:33:34;;;;;;;8.10;4.03;;;11.60;99.90;;;;;;5019405;28;20223;-68
2022/09/22 07:36:01;;;;;;;5.30;4.27;;;11.60;99.90;;;;;;5015079;28;20306;-67
2022/09/22 07:38:32;;;;;;;4.87;4.37;;;11.70;99.90;;;;;;5037939;28;20359;-67
2022/09/22 07:40:59;;;;;;;7.10;3.93;;;11.80;99.90;;;;;;5020174;28;20206;-67
2022/09/22 07:43:26;;;;;;;4.40;4.00;;;11.90;99.90;;;;;;5021471;28;20287;-68
2022/09/22 07:45:56;;;;;;;4.07;3.77;;;11.90;99.90;;;;;;5014958;28;20294;-68
2022/09/22 07:48:36;;;;;;;9.40;4.60;;;12.00;99.90;;;;;;5018727;28;20191;-69
2022/09/22 07:51:10;;;;;;;4.33;3.93;;;12.10;99.90;;;;;;5018366;28;20637;-69
2022/09/22 07:53:38;;;;;;;4.37;3.97;;;12.10;99.90;;;;;;5018146;28;20269;-67
2022/09/22 07:56:05;;;;;;;5.63;4.30;;;12.20;99.90;;;;;;5017277;28;20206;-67
2022/09/22 07:58:32;;;;;;;4.47;3.70;;;12.20;99.90;;;;;;5015229;28;20406;-66
2022/09/22 08:01:04;;;;;;;6.00;3.50;;;12.20;99.90;;;;;;5017243;28;20231;-66
2022/09/22 08:03:29;;;;;;;4.87;3.60;;;12.30;99.90;;;;;;5016546;28;20266;-67
2022/09/22 08:06:01;;;;;;;6.73;3.67;;;12.30;99.90;;;;;;5017714;28;20294;-67
2022/09/22 08:08:28;;;;;;;4.20;3.90;;;12.40;99.90;;;;;;5014916;28;20742;-66
2022/09/22 08:10:57;;;;;;;4.90;4.10;;;12.40;99.90;;;;;;5010374;28;20565;-67
2022/09/22 08:13:24;;;;;;;5.07;3.50;;;12.50;99.90;;;;;;5029573;28;20678;-70
2022/09/22 08:15:55;;;;;;;4.50;3.60;;;12.50;99.90;;;;;;5017235;28;20308;-69
2022/09/22 08:18:20;;;;;;;4.77;3.70;;;12.60;99.90;;;;;;5018047;28;20944;-70
2022/09/22 08:20:46;;;;;;;4.77;4.27;;;12.60;99.90;;;;;;5018094;28;20281;-82
2022/09/22 08:23:11;;;;;;;4.40;4.03;;;12.70;99.90;;;;;;5017899;28;20198;-68
2022/09/22 08:25:38;;;;;;;5.47;3.90;;;12.70;99.90;;;;;;5029716;28;20286;-67
2022/09/22 08:28:03;;;;;;;4.37;3.97;;;12.70;99.90;;;;;;5044032;28;20607;-68
2022/09/22 08:30:29;;;;;;;5.20;3.57;;;12.80;99.90;;;;;;5024261;28;20197;-67
2022/09/22 08:32:55;;;;;;;4.23;3.60;;;12.90;99.90;;;;;;5029950;28;20547;-67
2022/09/22 08:35:20;;;;;;;4.40;3.37;;;12.90;99.90;;;;;;5037054;28;20683;-66
2022/09/22 08:37:49;;;;;;;2.87;2.67;;;13.00;99.90;;;;;;5025854;28;20214;-66
2022/09/22 08:40:22;;;;;;;3.83;2.50;;;13.00;99.90;;;;;;5028534;28;20230;-66
2022/09/22 08:42:47;;;;;;;5.43;3.40;;;12.90;99.90;;;;;;5015027;28;20640;-66
2022/09/22 08:45:37;;;;;;;4.50;2.80;;;13.10;99.90;;;;;;5025583;28;20195;-66
2022/09/22 08:53:50;;;;;;;4.30;2.90;;;13.50;99.90;;;;;;5015363;28;20641;-65
2022/09/22 08:56:28;;;;;;;4.30;3.23;;;13.60;99.90;;;;;;5021938;28;20667;-66
2022/09/22 08:59:17;;;;;;;4.63;2.83;;;13.70;99.90;;;;;;5014914;28;20698;-66
2022/09/22 09:02:05;;;;;;;1.63;1.53;;;14.00;99.90;;;;;;5023098;28;20203;-67
2022/09/22 09:04:56;;;;;;;2.47;1.90;;;14.20;99.90;;;;;;5004562;28;20685;-66
2022/09/22 09:08:00;;;;;;;5.07;1.97;;;14.50;99.90;;;;;;5019120;28;20218;-66
2022/09/22 09:10:37;;;;;;;2.00;1.30;;;14.80;99.90;;;;;;5021992;28;20202;-66
2022/09/22 09:13:27;;;;;;;1.00;1.00;;;14.90;99.90;;;;;;5024542;28;20227;-66
2022/09/22 09:15:59;;;;;;;1.70;1.40;;;15.00;99.90;;;;;;5024114;28;20203;-65
2022/09/22 09:18:32;;;;;;;1.17;1.03;;;15.20;99.90;;;;;;5021585;28;20227;-66
2022/09/22 09:21:01;;;;;;;2.33;1.17;;;15.30;99.90;;;;;;5025707;28;20199;-67
2022/09/22 09:23:33;;;;;;;1.93;0.70;;;15.30;99.90;;;;;;5033861;28;20555;-66
2022/09/22 09:26:00;;;;;;;3.80;1.10;;;15.50;99.90;;;;;;5016415;28;20227;-66
2022/09/22 09:28:48;;;;;;;1.43;0.80;;;15.50;99.90;;;;;;5029924;28;20204;-66
2022/09/22 09:31:19;;;;;;;1.40;0.93;;;15.50;99.90;;;;;;5018256;28;20274;-67
2022/09/22 09:34:04;;;;;;;1.37;1.00;;;15.60;99.90;;;;;;5031687;28;20198;-67
2022/09/22 09:36:41;;;;;;;0.73;0.73;;;15.70;99.90;;;;;;5016441;28;20210;-69
2022/09/22 09:39:13;;;;;;;2.00;1.10;;;15.70;99.90;;;;;;5020599;28;20743;-69
2022/09/22 09:41:40;;;;;;;0.67;0.67;;;15.60;99.90;;;;;;5022884;28;20212;-72
2022/09/22 09:44:08;;;;;;;1.20;1.10;;;15.50;99.90;;;;;;5021907;28;20203;-72
2022/09/22 09:47:03;;;;;;;1.57;0.70;;;15.40;99.90;;;;;;5028613;28;20202;-71
2022/09/22 09:49:28;;;;;;;1.47;1.00;;;15.30;99.90;;;;;;5037569;28;20207;-72
2022/09/22 09:51:57;;;;;;;2.97;1.33;;;15.40;99.90;;;;;;5020073;28;20230;-71
2022/09/22 09:54:23;;;;;;;0.93;0.67;;;15.40;99.90;;;;;;5033679;28;20196;-70
2022/09/22 09:57:02;;;;;;;1.50;0.67;;;15.40;99.90;;;;;;5017367;28;20202;-70
2022/09/22 10:02:16;;;;;;;1.80;0.87;;;15.30;99.90;;;;;;5020215;28;20242;-70
2022/09/22 10:04:52;;;;;;;1.27;0.70;;;15.30;99.90;;;;;;5041649;28;20217;-70
2022/09/22 10:07:20;;;;;;;0.67;0.67;;;15.30;99.90;;;;;;5027117;28;20245;-71
2022/09/22 10:09:50;;;;;;;1.57;0.80;;;15.40;99.90;;;;;;5043505;28;20203;-70
2022/09/22 10:12:28;;;;;;;0.90;0.67;;;15.60;99.90;;;;;;5014953;28;20197;-70
2022/09/22 10:14:56;;;;;;;1.10;1.03;;;15.80;99.90;;;;;;5024300;28;20187;-70
2022/09/22 10:17:28;;;;;;;1.33;0.83;;;15.90;99.90;;;;;;5014166;28;20212;-69
2022/09/22 10:20:15;;;;;;;1.00;0.83;;;15.90;99.40;;;;;;5028214;28;20187;-69
2022/09/22 10:22:41;;;;;;;0.73;0.60;;;15.90;99.60;;;;;;5034988;28;20183;-69
2022/09/22 10:25:20;;;;;;;1.90;0.60;;;15.80;98.20;;;;;;5037282;28;20214;-70
2022/09/22 10:28:00;;;;;;;3.20;1.10;;;15.60;98.30;;;;;;5027260;28;20183;-70
2022/09/22 10:30:26;;;;;;;0.87;0.73;;;15.60;99.40;;;;;;5037839;28;20218;-69
2022/09/22 10:33:13;;;;;;;1.97;0.83;;;15.70;99.20;;;;;;5027811;28;20183;-69
2022/09/22 10:35:41;;;;;;;1.00;0.77;;;15.90;98.30;;;;;;5026551;28;20215;-70
2022/09/22 10:38:15;;;;;;;1.97;1.00;;;16.10;99.70;;;;;;5035074;28;20326;-70
2022/09/22 10:40:45;;;;;;;2.50;0.70;;;16.30;98.70;;;;;;5023945;28;20210;-70
2022/09/22 10:43:30;;;;;;;2.00;0.90;;;16.50;97.90;;;;;;5034812;28;20192;-71
2022/09/22 10:46:31;;;;;;;3.03;1.57;;;16.70;95.80;;;;;;5016333;28;20212;-70
2022/09/22 10:49:20;;;;;;;5.07;0.73;;;16.80;96.20;;;;;;5030219;28;20198;-70
2022/09/22 10:52:08;;;;;;;1.10;0.97;;;16.90;95.10;;;;;;5021892;28;20250;-70
2022/09/22 10:54:48;;;;;;;2.00;0.73;;;16.80;95.50;;;;;;5022774;28;20220;-70
2022/09/22 10:57:24;;;;;;;1.60;0.80;;;16.70;95.00;;;;;;5012055;28;20302;-70
2022/09/22 11:00:09;;;;;;;0.80;0.60;;;16.60;96.00;;;;;;5019178;28;20625;-70
2022/09/22 11:03:07;;;;;;;0.50;0.50;;;16.50;94.80;;;;;;5015417;28;20184;-70
2022/09/22 11:14:22;;;;;;;1.20;1.10;;;16.10;94.90;;;;;;5011428;28;20672;-70
2022/09/22 11:17:15;;;;;;;1.43;1.03;;;16.00;96.50;;;;;;5020561;28;20432;-70
2022/09/22 11:19:56;;;;;;;0.80;0.80;;;16.00;97.20;;;;;;5042444;28;20187;-70
2022/09/22 11:23:03;;;;;;;0.60;0.60;;;16.20;96.60;;;;;;5016489;28;20275;-69
2022/09/22 11:25:42;;;;;;;2.33;0.70;;;16.40;95.60;;;;;;5015650;28;20195;-70
2022/09/22 11:28:35;;;;;;;1.17;0.90;;;16.80;95.00;;;;;;5026551;28;20195;-70
2022/09/22 11:31:00;;;;;;;0.57;0.57;;;17.10;93.30;;;;;;5024155;28;20601;-71
2022/09/22 11:33:56;;;;;;;0.63;0.63;;;17.00;89.30;;;;;;5031166;28;20198;-71
2022/09/22 11:36:42;;;;;;;0.33;0.33;;;16.90;88.40;;;;;;5022784;28;20657;-67
2022/09/22 11:39:18;;;;;;;0.80;0.80;;;16.70;90.60;;;;;;5014557;28;20212;-67
2022/09/22 11:42:23;;;;;;;2.03;0.80;;;16.60;91.70;;;;;;5024805;28;20208;-68
2022/09/22 11:45:31;;;;;;;1.47;0.90;;;16.60;92.00;;;;;;5031191;28;20194;-69
2022/09/22 11:48:06;;;;;;;2.63;0.73;;;16.70;92.90;;;;;;5014498;28;20283;-65
2022/09/22 11:50:53;;;;;;;1.87;1.07;;;16.80;93.00;;;;;;5016572;28;20227;-69
2022/09/22 11:53:54;;;;;;;2.87;0.80;;;16.80;91.20;;;;;;5017112;28;20203;-68
2022/09/22 11:56:37;;;;;;;4.57;2.43;;;16.90;92.30;;;;;;5020321;28;20337;-66
2022/09/22 11:59:27;;;;;;;1.60;0.80;;;16.80;91.40;;;;;;5014025;28;20632;-68
2022/09/22 12:01:56;;;;;;;0.80;0.80;;;16.80;91.80;;;;;;5020925;28;20206;-69
2022/09/22 12:04:39;;;;;;;1.97;0.90;;;16.70;92.20;;;;;;5027845;28;20192;-66
2022/09/22 12:07:38;;;;;;;1.10;1.00;;;16.60;92.60;;;;;;5016078;28;20339;-69
2022/09/22 12:10:11;;;;;;;2.47;0.80;;;16.60;90.90;;;;;;5016863;28;20265;-65
2022/09/22 12:12:37;;;;;;;1.80;0.70;;;16.70;92.40;;;;;;5026028;28;20179;-67
2022/09/22 12:15:34;;;;;;;1.00;0.77;;;17.10;91.50;;;;;;5028267;28;20183;-65
2022/09/22 12:18:18;;;;;;;2.33;0.80;;;17.70;90.50;;;;;;5034623;28;20219;-68
2022/09/22 12:20:55;;;;;;;0.60;0.60;;;18.20;90.40;;;;;;5010472;28;20686;-66
2022/09/22 12:23:35;;;;;;;1.57;0.90;;;18.70;85.70;;;;;;5014825;28;20642;-64
2022/09/22 12:26:11;;;;;;;3.03;0.87;;;19.10;85.50;;;;;;5018430;28;20223;-64
2022/09/22 12:28:39;;;;;;;1.17;1.07;;;19.40;89.80;;;;;;5010005;28;20228;-65
2022/09/22 12:31:14;;;;;;;0.53;0.53;;;19.80;86.20;;;;;;5034696;28;20583;-66
2022/09/22 12:33:50;;;;;;;3.57;1.07;;;20.00;81.00;;;;;;5027029;28;20274;-72
2022/09/22 12:36:17;;;;;;;0.80;0.80;;;20.10;84.60;;;;;;5032971;28;20650;-66
2022/09/22 12:38:44;;;;;;;2.87;0.63;;;20.50;79.60;;;;;;5044291;28;20210;-66
2022/09/22 12:41:16;;;;;;;1.33;1.00;;;21.00;78.20;;;;;;5034120;28;20203;-66
2022/09/22 12:43:42;;;;;;;1.50;0.60;;;21.50;77.10;;;;;;5031607;28;20222;-66
2022/09/22 12:46:26;;;;;;;0.93;0.70;;;22.00;72.00;;;;;;5033831;28;20250;-66
2022/09/22 12:48:53;;;;;;;1.20;0.90;;;22.40;70.70;;;;;;5035008;28;20217;-66
2022/09/22 12:51:24;;;;;;;0.90;0.90;;;22.80;66.30;;;;;;5029712;28;20241;-66
2022/09/22 12:53:50;;;;;;;1.27;0.90;;;23.10;66.40;;;;;;5030571;28;20588;-65
2022/09/22 12:56:43;;;;;;;1.23;0.93;;;23.40;63.90;;;;;;5029197;28;20210;-66
2022/09/22 12:59:34;;;;;;;0.90;0.53;;;23.70;62.10;;;;;;5025041;28;20739;-65
2022/09/22 13:02:14;;;;;;;1.17;0.80;;;23.50;62.80;;;;;;5010177;28;20739;-67
2022/09/22 13:04:40;;;;;;;0.87;0.50;;;23.20;61.50;;;;;;5036302;28;20194;-68
2022/09/22 13:07:43;;;;;;;1.50;1.10;;;22.70;59.00;;;;;;5019121;28;20202;-67
2022/09/22 13:10:20;;;;;;;2.83;0.70;;;22.20;60.10;;;;;;5026792;28;20201;-68
2022/09/22 13:13:10;;;;;;;1.43;0.90;;;21.90;59.50;;;;;;5014554;28;20212;-68
2022/09/22 13:16:03;;;;;;;2.17;0.90;;;21.60;60.80;;;;;;5019131;28;20209;-66
2022/09/22 13:18:29;;;;;;;0.80;0.80;;;21.30;63.70;;;;;;5016510;28;20209;-76
2022/09/22 13:20:56;;;;;;;1.90;0.70;;;21.20;64.40;;;;;;5014262;28;20204;-76
2022/09/22 13:23:22;;;;;;;1.00;0.50;;;21.00;62.00;;;;;;5025239;28;20174;-81
2022/09/22 13:25:50;;;;;;;0.77;0.60;;;20.60;61.40;;;;;;5023287;28;20194;-65
2022/09/22 13:28:24;;;;;;;1.33;0.70;;;20.40;62.30;;;;;;5019198;28;20192;-67
2022/09/22 13:31:00;;;;;;;1.30;1.20;;;20.10;62.50;;;;;;5019831;28;20252;-68
2022/09/22 13:33:31;;;;;;;0.60;0.60;;;19.80;62.10;;;;;;5023922;28;20202;-77
2022/09/22 13:36:04;;;;;;;1.70;0.90;;;19.50;62.80;;;;;;5020847;28;20207;-69